createdAt,value
2018-02-27T00:00:55.520Z,1.59
2018-02-27T00:01:55.931Z,1.59
2018-02-27T00:02:55.517Z,1.59
2018-02-27T00:03:55.500Z,1.58
2018-02-27T00:04:55.523Z,1.58
2018-02-27T00:05:55.382Z,1.56
2018-02-27T00:06:55.898Z,1.57
2018-02-27T00:07:55.523Z,1.58
2018-02-27T00:08:55.522Z,1.58
2018-02-27T00:09:55.406Z,1.58
2018-02-27T00:10:55.545Z,1.58
2018-02-27T00:11:56.021Z,1.58
2018-02-27T00:12:55.567Z,1.58
2018-02-27T00:13:55.557Z,1.58
2018-02-27T00:14:55.427Z,1.59
2018-02-27T00:15:55.409Z,1.58
2018-02-27T00:16:55.415Z,1.6
2018-02-27T00:17:55.434Z,1.57
2018-02-27T00:18:55.428Z,1.55
2018-02-27T00:19:55.430Z,1.56
2018-02-27T00:20:55.433Z,1.56
2018-02-27T00:21:55.917Z,1.57
2018-02-27T00:22:55.441Z,1.57
2018-02-27T00:23:55.446Z,1.58
2018-02-27T00:24:55.439Z,1.57
2018-02-27T00:25:55.497Z,1.57
2018-02-27T00:26:55.467Z,1.57
2018-02-27T00:27:55.449Z,1.57
2018-02-27T00:28:55.640Z,1.57
2018-02-27T00:29:55.502Z,1.57
2018-02-27T00:30:55.441Z,1.57
2018-02-27T00:31:55.954Z,1.57
2018-02-27T00:32:55.436Z,1.57
2018-02-27T00:33:55.464Z,1.57
2018-02-27T00:34:55.523Z,1.56
2018-02-27T00:35:55.458Z,1.58
2018-02-27T00:36:55.482Z,1.57
2018-02-27T00:37:55.487Z,1.57
2018-02-27T00:38:55.504Z,1.57
2018-02-27T00:39:55.480Z,1.57
2018-02-27T00:40:55.487Z,1.58
2018-02-27T00:41:56.049Z,1.58
2018-02-27T00:42:55.521Z,1.58
2018-02-27T00:43:55.492Z,1.57
2018-02-27T00:44:55.472Z,1.57
2018-02-27T00:45:55.489Z,1.57
2018-02-27T00:46:55.481Z,1.57
2018-02-27T00:47:55.492Z,1.56
2018-02-27T00:48:55.782Z,1.56
2018-02-27T00:49:55.517Z,1.57
2018-02-27T00:50:55.659Z,1.57
2018-02-27T00:51:55.736Z,1.57
2018-02-27T00:52:55.675Z,1.58
2018-02-27T00:53:55.676Z,1.57
2018-02-27T00:54:55.505Z,1.58
2018-02-27T00:55:55.696Z,1.57
2018-02-27T00:56:55.682Z,1.57
2018-02-27T00:57:55.691Z,1.57
2018-02-27T00:58:55.710Z,1.57
2018-02-27T00:59:55.540Z,1.57
2018-02-27T01:00:55.695Z,1.57
2018-02-27T01:01:55.705Z,1.57
2018-02-27T01:02:55.533Z,1.57
2018-02-27T01:03:55.685Z,1.57
2018-02-27T01:04:55.703Z,1.57
2018-02-27T01:05:55.708Z,1.57
2018-02-27T01:06:55.750Z,1.57
2018-02-27T01:07:55.537Z,1.57
2018-02-27T01:08:55.548Z,1.56
2018-02-27T01:09:55.566Z,1.56
2018-02-27T01:10:55.553Z,1.55
2018-02-27T01:11:55.562Z,1.56
2018-02-27T01:12:55.554Z,1.56
2018-02-27T01:13:55.565Z,1.56
2018-02-27T01:14:55.587Z,1.56
2018-02-27T01:15:55.558Z,1.56
2018-02-27T01:16:55.604Z,1.56
2018-02-27T01:17:55.559Z,1.55
2018-02-27T01:18:55.566Z,1.54
2018-02-27T01:19:55.583Z,1.54
2018-02-27T01:20:55.563Z,1.54
2018-02-27T01:21:55.649Z,1.56
2018-02-27T01:22:55.577Z,1.55
2018-02-27T01:23:55.584Z,1.55
2018-02-27T01:24:55.615Z,1.56
2018-02-27T01:25:55.861Z,1.55
2018-02-27T01:28:55.632Z,1.55
2018-02-27T01:29:55.603Z,1.55
2018-02-27T01:30:55.596Z,1.56
2018-02-27T01:31:55.604Z,1.54
2018-02-27T01:32:55.616Z,1.54
2018-02-27T01:33:55.614Z,1.54
2018-02-27T01:34:55.607Z,1.54
2018-02-27T01:35:55.605Z,1.55
2018-02-27T01:36:55.626Z,1.55
2018-02-27T01:37:55.633Z,1.55
2018-02-27T01:38:55.670Z,1.56
2018-02-27T01:39:55.631Z,1.55
2018-02-27T01:40:55.636Z,1.55
2018-02-27T01:41:55.643Z,1.55
2018-02-27T01:42:55.630Z,1.55
2018-02-27T01:43:55.632Z,1.54
2018-02-27T01:44:55.648Z,1.55
2018-02-27T01:45:55.675Z,1.55
2018-02-27T01:46:55.656Z,1.55
2018-02-27T01:47:55.667Z,1.54
2018-02-27T01:48:55.662Z,1.55
2018-02-27T01:49:55.716Z,1.55
2018-02-27T01:50:55.762Z,1.55
2018-02-27T01:51:55.709Z,1.55
2018-02-27T01:52:55.667Z,1.55
2018-02-27T01:53:56.045Z,1.54
2018-02-27T01:54:55.697Z,1.54
2018-02-27T01:55:55.712Z,1.54
2018-02-27T01:56:55.688Z,1.53
2018-02-27T01:57:55.689Z,1.54
2018-02-27T01:58:55.715Z,1.54
2018-02-27T01:59:55.712Z,1.54
2018-02-27T02:00:55.757Z,1.55
2018-02-27T02:01:55.859Z,1.55
2018-02-27T02:02:55.862Z,1.55
2018-02-27T02:03:55.857Z,1.55
2018-02-27T02:04:55.854Z,1.55
2018-02-27T02:05:55.883Z,1.55
2018-02-27T02:06:55.725Z,1.56
2018-02-27T02:07:55.887Z,1.55
2018-02-27T02:08:55.890Z,1.55
2018-02-27T02:09:55.865Z,1.54
2018-02-27T02:10:55.898Z,1.54
2018-02-27T02:11:55.902Z,1.54
2018-02-27T02:12:55.983Z,1.54
2018-02-27T02:13:55.923Z,1.54
2018-02-27T02:14:55.901Z,1.54
2018-02-27T02:15:55.887Z,1.54
2018-02-27T02:16:55.911Z,1.54
2018-02-27T02:17:55.905Z,1.54
2018-02-27T02:18:55.898Z,1.54
2018-02-27T02:19:58.059Z,1.53
2018-02-27T02:20:58.041Z,1.54
2018-02-27T02:22:00.862Z,1.53
2018-02-27T02:22:55.906Z,1.53
2018-02-27T02:23:55.941Z,1.54
2018-02-27T02:24:55.950Z,1.54
2018-02-27T02:25:55.945Z,1.54
2018-02-27T02:26:55.944Z,1.54
2018-02-27T02:27:55.777Z,1.54
2018-02-27T02:28:55.928Z,1.54
2018-02-27T02:29:55.960Z,1.55
2018-02-27T02:30:55.951Z,1.55
2018-02-27T02:31:56.342Z,1.54
2018-02-27T02:32:55.955Z,1.54
2018-02-27T02:33:55.946Z,1.54
2018-02-27T02:34:55.943Z,1.54
2018-02-27T02:35:55.959Z,1.54
2018-02-27T02:36:55.961Z,1.54
2018-02-27T02:37:55.825Z,1.54
2018-02-27T02:40:01.999Z,1.55
2018-02-27T02:40:55.800Z,1.55
2018-02-27T02:41:55.849Z,1.55
2018-02-27T02:42:55.838Z,1.55
2018-02-27T02:43:55.817Z,1.55
2018-02-27T02:44:55.815Z,1.56
2018-02-27T02:45:55.822Z,1.55
2018-02-27T02:46:55.823Z,1.55
2018-02-27T02:47:55.851Z,1.56
2018-02-27T02:48:55.822Z,1.56
2018-02-27T02:49:55.846Z,1.56
2018-02-27T02:50:55.832Z,1.56
2018-02-27T02:51:55.837Z,1.55
2018-02-27T02:52:55.865Z,1.56
2018-02-27T02:53:55.840Z,1.56
2018-02-27T02:54:55.843Z,1.56
2018-02-27T02:55:55.852Z,1.57
2018-02-27T02:56:55.836Z,1.57
2018-02-27T02:57:55.844Z,1.57
2018-02-27T02:58:55.845Z,1.57
2018-02-27T02:59:55.848Z,1.57
2018-02-27T03:00:55.856Z,1.57
2018-02-27T03:01:55.887Z,1.58
2018-02-27T03:02:55.872Z,1.58
2018-02-27T03:03:55.857Z,1.57
2018-02-27T03:04:55.858Z,1.57
2018-02-27T03:05:55.868Z,1.58
2018-02-27T03:06:55.944Z,1.58
2018-02-27T03:07:55.868Z,1.57
2018-02-27T03:08:56.023Z,1.57
2018-02-27T03:09:55.878Z,1.57
2018-02-27T03:10:55.883Z,1.57
2018-02-27T03:11:55.889Z,1.58
2018-02-27T03:12:56.034Z,1.58
2018-02-27T03:13:56.057Z,1.58
2018-02-27T03:14:56.050Z,1.59
2018-02-27T03:15:56.048Z,1.58
2018-02-27T03:16:56.059Z,1.58
2018-02-27T03:17:56.092Z,1.59
2018-02-27T03:18:56.074Z,1.59
2018-02-27T03:19:56.074Z,1.6
2018-02-27T03:20:56.075Z,1.59
2018-02-27T03:21:56.089Z,1.59
2018-02-27T03:22:56.106Z,1.59
2018-02-27T03:23:56.095Z,1.6
2018-02-27T03:24:56.106Z,1.59
2018-02-27T03:25:56.109Z,1.6
2018-02-27T03:26:56.093Z,1.6
2018-02-27T03:27:56.107Z,1.6
2018-02-27T03:28:55.973Z,1.6
2018-02-27T03:29:56.139Z,1.6
2018-02-27T03:30:56.137Z,1.6
2018-02-27T03:31:55.964Z,1.6
2018-02-27T03:32:56.114Z,1.61
2018-02-27T03:33:56.145Z,1.61
2018-02-27T03:34:56.128Z,1.62
2018-02-27T03:35:56.111Z,1.62
2018-02-27T03:36:56.124Z,1.62
2018-02-27T03:37:56.116Z,1.62
2018-02-27T03:38:56.118Z,1.62
2018-02-27T03:39:56.115Z,1.62
2018-02-27T03:40:56.120Z,1.63
2018-02-27T03:41:56.118Z,1.62
2018-02-27T03:42:56.130Z,1.64
2018-02-27T03:43:56.207Z,1.64
2018-02-27T03:44:56.163Z,1.63
2018-02-27T03:45:55.984Z,1.64
2018-02-27T03:46:56.154Z,1.64
2018-02-27T03:47:56.161Z,1.64
2018-02-27T03:48:56.007Z,1.64
2018-02-27T03:49:56.173Z,1.64
2018-02-27T03:50:56.015Z,1.63
2018-02-27T03:51:56.000Z,1.63
2018-02-27T03:52:56.042Z,1.63
2018-02-27T03:53:56.034Z,1.63
2018-02-27T03:54:56.021Z,1.62
2018-02-27T03:55:56.030Z,1.61
2018-02-27T03:56:56.040Z,1.62
2018-02-27T03:57:56.038Z,1.63
2018-02-27T03:58:56.054Z,1.62
2018-02-27T03:59:56.037Z,1.62
2018-02-27T04:00:56.055Z,1.61
2018-02-27T04:01:56.232Z,1.62
2018-02-27T04:02:56.071Z,1.6
2018-02-27T04:05:02.322Z,1.61
2018-02-27T04:05:56.074Z,1.61
2018-02-27T04:06:56.072Z,1.59
2018-02-27T04:07:56.091Z,1.59
2018-02-27T04:08:56.083Z,1.59
2018-02-27T04:09:56.075Z,1.59
2018-02-27T04:10:56.243Z,1.58
2018-02-27T04:11:56.084Z,1.58
2018-02-27T04:13:56.225Z,1.58
2018-02-27T04:14:56.083Z,1.58
2018-02-27T04:15:56.089Z,1.58
2018-02-27T04:16:56.100Z,1.58
2018-02-27T04:17:56.113Z,1.58
2018-02-27T04:18:56.098Z,1.58
2018-02-27T04:19:56.111Z,1.58
2018-02-27T04:20:56.111Z,1.58
2018-02-27T04:21:56.119Z,1.57
2018-02-27T04:24:16.891Z,1.58
2018-02-27T04:24:56.307Z,1.58
2018-02-27T04:25:56.295Z,1.59
2018-02-27T04:26:56.287Z,1.58
2018-02-27T04:27:56.282Z,1.58
2018-02-27T04:28:56.300Z,1.58
2018-02-27T04:29:56.314Z,1.58
2018-02-27T04:30:56.298Z,1.59
2018-02-27T04:31:56.305Z,1.59
2018-02-27T04:32:56.313Z,1.58
2018-02-27T04:33:56.322Z,1.58
2018-02-27T04:34:56.306Z,1.58
2018-02-27T04:35:56.158Z,1.59
2018-02-27T04:36:56.325Z,1.59
2018-02-27T04:37:56.315Z,1.59
2018-02-27T04:38:56.320Z,1.59
2018-02-27T04:39:56.163Z,1.59
2018-02-27T04:40:56.325Z,1.59
2018-02-27T04:41:56.365Z,1.58
2018-02-27T04:42:56.182Z,1.58
2018-02-27T04:43:56.178Z,1.58
2018-02-27T04:44:56.566Z,1.58
2018-02-27T04:45:56.194Z,1.58
2018-02-27T04:46:56.278Z,1.57
2018-02-27T04:47:56.203Z,1.58
2018-02-27T04:48:56.215Z,1.59
2018-02-27T04:49:56.300Z,1.59
2018-02-27T04:52:02.498Z,1.6
2018-02-27T04:52:56.527Z,1.59
2018-02-27T04:53:56.257Z,1.58
2018-02-27T04:54:56.219Z,1.59
2018-02-27T04:55:56.219Z,1.58
2018-02-27T04:56:56.236Z,1.59
2018-02-27T04:57:56.215Z,1.59
2018-02-27T04:58:56.212Z,1.6
2018-02-27T04:59:56.238Z,1.6
2018-02-27T05:00:56.239Z,1.6
2018-02-27T05:01:56.262Z,1.59
2018-02-27T05:02:56.232Z,1.6
2018-02-27T05:03:56.300Z,1.6
2018-02-27T05:04:56.268Z,1.6
2018-02-27T05:05:56.255Z,1.6
2018-02-27T05:06:56.268Z,1.6
2018-02-27T05:07:56.275Z,1.61
2018-02-27T05:08:56.255Z,1.61
2018-02-27T05:09:56.268Z,1.62
2018-02-27T05:10:56.270Z,1.61
2018-02-27T05:11:56.268Z,1.62
2018-02-27T05:12:56.292Z,1.62
2018-02-27T05:13:56.279Z,1.62
2018-02-27T05:14:56.425Z,1.63
2018-02-27T05:15:56.265Z,1.62
2018-02-27T05:16:56.260Z,1.63
2018-02-27T05:17:56.479Z,1.63
2018-02-27T05:18:56.426Z,1.63
2018-02-27T05:19:56.262Z,1.63
2018-02-27T05:20:56.278Z,1.63
2018-02-27T05:21:56.434Z,1.63
2018-02-27T05:22:56.273Z,1.64
2018-02-27T05:23:56.526Z,1.64
2018-02-27T05:24:56.288Z,1.64
2018-02-27T05:25:56.532Z,1.63
2018-02-27T05:26:56.307Z,1.64
2018-02-27T05:27:56.459Z,1.64
2018-02-27T05:28:56.533Z,1.64
2018-02-27T05:29:56.314Z,1.65
2018-02-27T05:30:56.537Z,1.64
2018-02-27T05:31:56.334Z,1.65
2018-02-27T05:32:56.314Z,1.65
2018-02-27T05:33:56.508Z,1.65
2018-02-27T05:34:56.347Z,1.65
2018-02-27T05:35:56.333Z,1.65
2018-02-27T05:36:56.503Z,1.65
2018-02-27T05:37:56.481Z,1.65
2018-02-27T05:38:56.499Z,1.65
2018-02-27T05:39:56.500Z,1.65
2018-02-27T05:40:56.510Z,1.67
2018-02-27T05:41:56.540Z,1.66
2018-02-27T05:42:56.510Z,1.67
2018-02-27T05:43:56.498Z,1.67
2018-02-27T05:44:56.512Z,1.67
2018-02-27T05:45:56.538Z,1.66
2018-02-27T05:46:56.535Z,1.67
2018-02-27T05:47:56.514Z,1.67
2018-02-27T05:48:56.569Z,1.67
2018-02-27T05:49:56.539Z,1.67
2018-02-27T05:50:56.535Z,1.67
2018-02-27T05:51:56.531Z,1.67
2018-02-27T05:52:56.523Z,1.67
2018-02-27T05:53:56.548Z,1.67
2018-02-27T05:54:56.378Z,1.67
2018-02-27T05:55:56.382Z,1.68
2018-02-27T05:56:56.446Z,1.69
2018-02-27T05:57:56.407Z,1.68
2018-02-27T05:58:56.404Z,1.68
2018-02-27T05:59:56.535Z,1.68
2018-02-27T06:00:56.473Z,1.68
2018-02-27T06:01:56.569Z,1.68
2018-02-27T06:02:56.528Z,1.67
2018-02-27T06:03:56.420Z,1.67
2018-02-27T06:04:56.867Z,1.68
2018-02-27T06:05:56.456Z,1.68
2018-02-27T06:06:56.429Z,1.68
2018-02-27T06:07:56.496Z,1.69
2018-02-27T06:08:56.458Z,1.67
2018-02-27T06:09:56.520Z,1.67
2018-02-27T06:10:56.452Z,1.67
2018-02-27T06:11:56.480Z,1.67
2018-02-27T06:12:56.465Z,1.66
2018-02-27T06:13:56.484Z,1.68
2018-02-27T06:14:56.620Z,1.67
2018-02-27T06:15:56.501Z,1.68
2018-02-27T06:16:56.490Z,1.68
2018-02-27T06:17:56.485Z,1.67
2018-02-27T06:18:56.492Z,1.67
2018-02-27T06:19:56.477Z,1.73
2018-02-27T06:20:56.502Z,1.7
2018-02-27T06:21:56.490Z,1.69
2018-02-27T06:22:56.465Z,1.69
2018-02-27T06:23:56.513Z,1.69
2018-02-27T06:24:56.482Z,1.69
2018-02-27T06:25:56.485Z,1.69
2018-02-27T06:26:56.678Z,1.68
2018-02-27T06:27:56.653Z,1.68
2018-02-27T06:28:56.662Z,1.68
2018-02-27T06:29:56.549Z,1.69
2018-02-27T06:30:56.678Z,1.69
2018-02-27T06:31:56.696Z,1.69
2018-02-27T06:32:56.554Z,1.68
2018-02-27T06:33:56.527Z,1.67
2018-02-27T06:34:56.527Z,1.67
2018-02-27T06:35:56.514Z,1.68
2018-02-27T06:36:56.520Z,1.68
2018-02-27T06:37:56.586Z,1.68
2018-02-27T06:38:56.544Z,1.67
2018-02-27T06:39:56.540Z,1.69
2018-02-27T06:40:56.531Z,1.69
2018-02-27T06:41:56.712Z,1.69
2018-02-27T06:42:56.569Z,1.68
2018-02-27T06:43:56.545Z,1.68
2018-02-27T06:44:56.549Z,1.69
2018-02-27T06:45:56.541Z,1.69
2018-02-27T06:46:56.562Z,1.68
2018-02-27T06:47:56.727Z,1.67
2018-02-27T06:48:56.732Z,1.7
2018-02-27T06:49:56.728Z,1.7
2018-02-27T06:50:56.743Z,1.69
2018-02-27T06:51:56.567Z,1.68
2018-02-27T06:52:56.747Z,1.69
2018-02-27T06:53:56.756Z,1.69
2018-02-27T06:54:56.752Z,1.69
2018-02-27T06:55:56.804Z,1.69
2018-02-27T06:56:56.787Z,1.7
2018-02-27T06:57:56.769Z,1.68
2018-02-27T06:58:56.790Z,1.69
2018-02-27T06:59:56.782Z,1.69
2018-02-27T07:00:56.790Z,1.7
2018-02-27T07:01:56.781Z,1.7
2018-02-27T07:02:56.799Z,1.7
2018-02-27T07:03:56.779Z,1.71
2018-02-27T07:04:56.846Z,1.7
2018-02-27T07:05:56.640Z,1.69
2018-02-27T07:06:56.699Z,1.69
2018-02-27T07:07:56.647Z,1.69
2018-02-27T07:08:56.647Z,1.69
2018-02-27T07:09:56.798Z,1.67
2018-02-27T07:10:56.653Z,1.69
2018-02-27T07:11:56.639Z,1.68
2018-02-27T07:12:56.818Z,1.68
2018-02-27T07:13:56.811Z,1.67
2018-02-27T07:14:56.810Z,1.68
2018-02-27T07:15:56.668Z,1.7
2018-02-27T07:16:56.666Z,1.69
2018-02-27T07:17:56.694Z,1.7
2018-02-27T07:18:56.990Z,1.7
2018-02-27T07:19:56.830Z,1.68
2018-02-27T07:20:56.842Z,1.67
2018-02-27T07:21:56.840Z,1.68
2018-02-27T07:22:56.846Z,1.67
2018-02-27T07:23:56.687Z,1.66
2018-02-27T07:24:56.694Z,1.65
2018-02-27T07:25:56.708Z,1.66
2018-02-27T07:26:56.837Z,1.67
2018-02-27T07:27:56.911Z,1.67
2018-02-27T07:28:56.890Z,1.66
2018-02-27T07:29:56.722Z,1.65
2018-02-27T07:30:56.727Z,1.64
2018-02-27T07:31:56.707Z,1.64
2018-02-27T07:32:56.711Z,1.65
2018-02-27T07:33:56.894Z,1.65
2018-02-27T07:34:56.932Z,1.64
2018-02-27T07:35:56.868Z,1.65
2018-02-27T07:36:56.725Z,1.66
2018-02-27T07:37:56.733Z,1.66
2018-02-27T07:38:56.752Z,1.65
2018-02-27T07:39:56.832Z,1.66
2018-02-27T07:40:56.767Z,1.66
2018-02-27T07:41:56.773Z,1.67
2018-02-27T07:42:56.741Z,1.66
2018-02-27T07:43:56.751Z,1.67
2018-02-27T07:44:56.812Z,1.67
2018-02-27T07:45:56.748Z,1.68
2018-02-27T07:46:56.953Z,1.67
2018-02-27T07:47:56.913Z,1.65
2018-02-27T07:48:56.771Z,1.64
2018-02-27T07:49:56.758Z,1.62
2018-02-27T07:50:56.763Z,1.64
2018-02-27T07:51:56.787Z,1.64
2018-02-27T07:52:56.919Z,1.64
2018-02-27T07:53:56.795Z,1.65
2018-02-27T07:54:56.790Z,1.65
2018-02-27T07:55:57.227Z,1.66
2018-02-27T07:56:56.813Z,1.66
2018-02-27T07:57:56.789Z,1.65
2018-02-27T07:58:56.794Z,1.65
2018-02-27T07:59:56.962Z,1.63
2018-02-27T08:00:56.980Z,1.61
2018-02-27T08:01:56.954Z,1.6
2018-02-27T08:02:56.952Z,1.61
2018-02-27T08:03:57.157Z,1.61
2018-02-27T08:04:56.972Z,1.62
2018-02-27T08:05:57.020Z,1.64
2018-02-27T08:06:56.822Z,1.63
2018-02-27T08:07:56.988Z,1.65
2018-02-27T08:08:56.976Z,1.65
2018-02-27T08:09:56.992Z,1.64
2018-02-27T08:10:56.978Z,1.65
2018-02-27T08:11:56.825Z,1.61
2018-02-27T08:12:56.980Z,1.59
2018-02-27T08:13:57.022Z,1.57
2018-02-27T08:14:57.012Z,1.57
2018-02-27T08:15:57.402Z,1.58
2018-02-27T08:16:57.014Z,1.55
2018-02-27T08:17:57.016Z,1.54
2018-02-27T08:18:56.856Z,1.54
2018-02-27T08:19:57.004Z,1.51
2018-02-27T08:20:56.900Z,1.51
2018-02-27T08:21:57.193Z,1.5
2018-02-27T08:22:57.055Z,1.5
2018-02-27T08:23:57.012Z,1.51
2018-02-27T08:24:57.009Z,1.5
2018-02-27T08:25:57.045Z,1.51
2018-02-27T08:26:57.020Z,1.51
2018-02-27T08:27:57.011Z,1.5
2018-02-27T08:28:57.039Z,1.52
2018-02-27T08:29:57.077Z,1.52
2018-02-27T08:30:57.062Z,1.53
2018-02-27T08:31:57.035Z,1.53
2018-02-27T08:32:56.880Z,1.52
2018-02-27T08:33:57.028Z,1.49
2018-02-27T08:34:56.882Z,1.48
2018-02-27T08:35:56.868Z,1.48
2018-02-27T08:36:56.952Z,1.47
2018-02-27T08:37:56.896Z,1.48
2018-02-27T08:38:56.886Z,1.48
2018-02-27T08:39:56.893Z,1.48
2018-02-27T08:40:56.910Z,1.5
2018-02-27T08:41:57.101Z,1.5
2018-02-27T08:42:57.070Z,1.49
2018-02-27T08:43:57.078Z,1.49
2018-02-27T08:44:56.957Z,1.5
2018-02-27T08:45:56.923Z,1.52
2018-02-27T08:46:56.931Z,1.53
2018-02-27T08:47:56.905Z,1.54
2018-02-27T08:48:56.945Z,1.54
2018-02-27T08:49:56.989Z,1.53
2018-02-27T08:50:57.263Z,1.51
2018-02-27T08:51:56.936Z,1.5
2018-02-27T08:52:56.972Z,1.49
2018-02-27T08:53:56.943Z,1.49
2018-02-27T08:54:57.139Z,1.49
2018-02-27T08:55:57.139Z,1.5
2018-02-27T08:56:56.950Z,1.5
2018-02-27T08:57:57.107Z,1.51
2018-02-27T08:58:56.980Z,1.51
2018-02-27T08:59:56.957Z,1.51
2018-02-27T09:00:56.960Z,1.52
2018-02-27T09:01:56.945Z,1.5
2018-02-27T09:02:56.968Z,1.51
2018-02-27T09:03:56.972Z,1.53
2018-02-27T09:04:56.972Z,1.53
2018-02-27T09:05:56.967Z,1.53
2018-02-27T09:06:56.963Z,1.52
2018-02-27T09:07:56.993Z,1.51
2018-02-27T09:08:56.982Z,1.52
2018-02-27T09:09:57.046Z,1.53
2018-02-27T09:10:57.016Z,1.52
2018-02-27T09:11:57.150Z,1.5
2018-02-27T09:12:57.145Z,1.49
2018-02-27T09:13:57.150Z,1.5
2018-02-27T09:14:57.150Z,1.5
2018-02-27T09:15:57.163Z,1.49
2018-02-27T09:16:57.002Z,1.48
2018-02-27T09:17:57.146Z,1.49
2018-02-27T09:18:57.144Z,1.5
2018-02-27T09:19:57.193Z,1.48
2018-02-27T09:20:57.003Z,1.5
2018-02-27T09:21:57.167Z,1.51
2018-02-27T09:22:57.196Z,1.53
2018-02-27T09:23:57.177Z,1.49
2018-02-27T09:24:57.208Z,1.48
2018-02-27T09:25:57.195Z,1.45
2018-02-27T09:26:57.185Z,1.43
2018-02-27T09:27:57.180Z,1.43
2018-02-27T09:28:57.192Z,1.43
2018-02-27T09:29:57.492Z,1.45
2018-02-27T09:30:57.189Z,1.45
2018-02-27T09:31:57.200Z,1.45
2018-02-27T09:32:57.198Z,1.45
2018-02-27T09:33:57.202Z,1.49
2018-02-27T09:34:57.494Z,1.46
2018-02-27T09:35:57.205Z,1.47
2018-02-27T09:36:57.212Z,1.47
2018-02-27T09:37:57.228Z,1.47
2018-02-27T09:38:57.236Z,1.46
2018-02-27T09:39:57.249Z,1.46
2018-02-27T09:40:57.241Z,1.46
2018-02-27T09:41:57.216Z,1.47
2018-02-27T09:42:57.258Z,1.48
2018-02-27T09:43:57.230Z,1.48
2018-02-27T09:44:57.252Z,1.48
2018-02-27T09:45:57.225Z,1.47
2018-02-27T09:46:57.133Z,1.47
2018-02-27T09:47:57.108Z,1.48
2018-02-27T09:48:57.095Z,1.48
2018-02-27T09:49:57.095Z,1.45
2018-02-27T09:50:57.110Z,1.46
2018-02-27T09:51:57.111Z,1.48
2018-02-27T09:52:57.093Z,1.48
2018-02-27T09:53:57.256Z,1.5
2018-02-27T09:54:57.411Z,1.49
2018-02-27T09:55:57.255Z,1.49
2018-02-27T09:56:57.118Z,1.48
2018-02-27T09:57:57.190Z,1.5
2018-02-27T09:58:57.131Z,1.5
2018-02-27T09:59:57.161Z,1.51
2018-02-27T10:00:57.133Z,1.5
2018-02-27T10:01:57.127Z,1.49
2018-02-27T10:02:57.162Z,1.51
2018-02-27T10:03:57.137Z,1.5
2018-02-27T10:04:57.182Z,1.49
2018-02-27T10:05:57.158Z,1.45
2018-02-27T10:06:57.143Z,1.47
2018-02-27T10:07:57.169Z,1.51
2018-02-27T10:08:57.172Z,1.5
2018-02-27T10:09:57.221Z,1.49
2018-02-27T10:10:57.172Z,1.48
2018-02-27T10:11:57.186Z,1.5
2018-02-27T10:12:57.182Z,1.49
2018-02-27T10:13:57.188Z,1.51
2018-02-27T10:16:57.279Z,1.51
2018-02-27T10:17:57.192Z,1.5
2018-02-27T10:18:57.201Z,1.49
2018-02-27T10:19:57.244Z,1.51
2018-02-27T10:20:57.216Z,1.52
2018-02-27T10:21:57.208Z,1.5
2018-02-27T10:22:57.373Z,1.49
2018-02-27T10:25:03.602Z,1.43
2018-02-27T10:25:57.373Z,1.43
2018-02-27T10:26:57.380Z,1.44
2018-02-27T10:27:57.382Z,1.47
2018-02-27T10:28:57.408Z,1.48
2018-02-27T10:29:57.439Z,1.49
2018-02-27T10:30:57.445Z,1.5
2018-02-27T10:31:57.321Z,1.51
2018-02-27T10:32:57.437Z,1.49
2018-02-27T10:33:57.410Z,1.46
2018-02-27T10:34:57.715Z,1.47
2018-02-27T10:35:57.769Z,1.5
2018-02-27T10:36:57.421Z,1.5
2018-02-27T10:37:57.413Z,1.49
2018-02-27T10:38:57.251Z,1.49
2018-02-27T10:39:57.466Z,1.5
2018-02-27T10:40:57.277Z,1.5
2018-02-27T10:41:57.297Z,1.51
2018-02-27T10:42:57.279Z,1.51
2018-02-27T10:43:57.270Z,1.48
2018-02-27T10:44:57.275Z,1.49
2018-02-27T10:45:57.327Z,1.51
2018-02-27T10:46:57.288Z,1.5
2018-02-27T10:47:57.297Z,1.5
2018-02-27T10:48:57.480Z,1.49
2018-02-27T10:49:57.440Z,1.48
2018-02-27T10:50:57.330Z,1.5
2018-02-27T10:51:57.329Z,1.49
2018-02-27T10:52:57.324Z,1.49
2018-02-27T10:53:57.322Z,1.47
2018-02-27T10:54:57.545Z,1.49
2018-02-27T10:55:57.311Z,1.52
2018-02-27T10:56:57.358Z,1.47
2018-02-27T10:57:57.331Z,1.45
2018-02-27T10:58:57.351Z,1.45
2018-02-27T10:59:57.371Z,1.41
2018-02-27T11:00:57.318Z,1.42
2018-02-27T11:01:57.477Z,1.45
2018-02-27T11:02:57.327Z,1.43
2018-02-27T11:03:57.332Z,1.47
2018-02-27T11:04:57.347Z,1.46
2018-02-27T11:05:57.336Z,1.48
2018-02-27T11:06:57.342Z,1.43
2018-02-27T11:07:57.359Z,1.46
2018-02-27T11:08:57.336Z,1.48
2018-02-27T11:11:03.588Z,1.46
2018-02-27T11:11:57.376Z,1.46
2018-02-27T11:12:57.420Z,1.44
2018-02-27T11:13:58.199Z,1.43
2018-02-27T11:14:57.415Z,1.42
2018-02-27T11:15:57.910Z,1.43
2018-02-27T11:16:57.529Z,1.44
2018-02-27T11:17:57.364Z,1.45
2018-02-27T11:18:57.384Z,1.43
2018-02-27T11:19:57.670Z,1.43
2018-02-27T11:20:57.397Z,1.44
2018-02-27T11:21:57.433Z,1.42
2018-02-27T11:22:57.397Z,1.42
2018-02-27T11:23:57.428Z,1.43
2018-02-27T11:24:57.560Z,1.4
2018-02-27T11:25:57.420Z,1.42
2018-02-27T11:26:57.423Z,1.43
2018-02-27T11:27:57.423Z,1.4
2018-02-27T11:28:57.437Z,1.42
2018-02-27T11:29:57.428Z,1.45
2018-02-27T11:30:57.444Z,1.44
2018-02-27T11:31:57.450Z,1.45
2018-02-27T11:32:57.475Z,1.42
2018-02-27T11:33:57.437Z,1.42
2018-02-27T11:34:57.453Z,1.4
2018-02-27T11:35:57.608Z,1.43
2018-02-27T11:36:57.620Z,1.41
2018-02-27T11:37:57.614Z,1.42
2018-02-27T11:38:57.733Z,1.42
2018-02-27T11:39:57.443Z,1.41
2018-02-27T11:40:57.614Z,1.37
2018-02-27T11:41:57.512Z,1.4
2018-02-27T11:42:57.626Z,1.42
2018-02-27T11:43:57.508Z,1.42
2018-02-27T11:44:57.622Z,1.42
2018-02-27T11:45:57.617Z,1.38
2018-02-27T11:46:57.662Z,1.37
2018-02-27T11:47:57.642Z,1.38
2018-02-27T11:48:57.647Z,1.41
2018-02-27T11:49:57.653Z,1.42
2018-02-27T11:50:57.644Z,1.42
2018-02-27T11:51:57.513Z,1.45
2018-02-27T11:52:57.506Z,1.45
2018-02-27T11:53:57.530Z,1.46
2018-02-27T11:54:57.538Z,1.45
2018-02-27T11:55:57.526Z,1.46
2018-02-27T11:56:57.514Z,1.47
2018-02-27T11:57:57.545Z,1.47
2018-02-27T11:58:57.531Z,1.47
2018-02-27T11:59:57.531Z,1.45
2018-02-27T12:00:57.527Z,1.44
2018-02-27T12:01:57.536Z,1.41
2018-02-27T12:02:57.538Z,1.43
2018-02-27T12:03:57.549Z,1.43
2018-02-27T12:04:57.552Z,1.43
2018-02-27T12:05:57.539Z,1.42
2018-02-27T12:06:57.544Z,1.43
2018-02-27T12:07:57.571Z,1.46
2018-02-27T12:08:57.545Z,1.47
2018-02-27T12:09:57.565Z,1.44
2018-02-27T12:10:57.562Z,1.46
2018-02-27T12:11:57.544Z,1.46
2018-02-27T12:12:57.555Z,1.45
2018-02-27T12:13:57.557Z,1.43
2018-02-27T12:14:57.573Z,1.46
2018-02-27T12:15:57.571Z,1.49
2018-02-27T12:16:57.576Z,1.48
2018-02-27T12:17:57.586Z,1.47
2018-02-27T12:18:57.583Z,1.47
2018-02-27T12:19:57.609Z,1.46
2018-02-27T12:20:57.616Z,1.47
2018-02-27T12:21:57.627Z,1.49
2018-02-27T12:22:57.619Z,1.47
2018-02-27T12:23:57.652Z,1.43
2018-02-27T12:24:57.649Z,1.47
2018-02-27T12:25:57.626Z,1.46
2018-02-27T12:26:57.643Z,1.52
2018-02-27T12:27:57.623Z,1.49
2018-02-27T12:28:57.662Z,1.5
2018-02-27T12:29:57.639Z,1.48
2018-02-27T12:30:57.627Z,1.46
2018-02-27T12:31:57.642Z,1.47
2018-02-27T12:32:57.621Z,1.48
2018-02-27T12:33:57.621Z,1.48
2018-02-27T12:34:57.625Z,1.49
2018-02-27T12:35:57.796Z,1.5
2018-02-27T12:36:57.649Z,1.5
2018-02-27T12:37:57.620Z,1.48
2018-02-27T12:38:57.638Z,1.47
2018-02-27T12:39:57.658Z,1.44
2018-02-27T12:40:57.649Z,1.43
2018-02-27T12:41:57.914Z,1.47
2018-02-27T12:42:57.639Z,1.48
2018-02-27T12:43:57.660Z,1.47
2018-02-27T12:44:57.671Z,1.44
2018-02-27T12:45:57.805Z,1.41
2018-02-27T12:46:57.818Z,1.4
2018-02-27T12:47:57.844Z,1.39
2018-02-27T12:48:57.813Z,1.37
2018-02-27T12:49:57.817Z,1.38
2018-02-27T12:50:57.672Z,1.37
2018-02-27T12:51:57.854Z,1.37
2018-02-27T12:52:57.724Z,1.39
2018-02-27T12:53:57.864Z,1.37
2018-02-27T12:54:57.832Z,1.35
2018-02-27T12:55:57.671Z,1.35
2018-02-27T12:56:57.696Z,1.4
2018-02-27T12:57:57.884Z,1.42
2018-02-27T12:58:57.862Z,1.45
2018-02-27T12:59:57.685Z,1.46
2018-02-27T13:00:57.849Z,1.43
2018-02-27T13:01:57.855Z,1.42
2018-02-27T13:02:57.712Z,1.42
2018-02-27T13:03:57.889Z,1.39
2018-02-27T13:04:58.179Z,1.41
2018-02-27T13:05:57.889Z,1.41
2018-02-27T13:06:57.709Z,1.43
2018-02-27T13:07:57.763Z,1.44
2018-02-27T13:08:57.879Z,1.4
2018-02-27T13:09:57.887Z,1.4
2018-02-27T13:10:57.881Z,1.42
2018-02-27T13:11:57.897Z,1.4
2018-02-27T13:12:57.923Z,1.43
2018-02-27T13:13:57.907Z,1.34
2018-02-27T13:14:57.895Z,1.34
2018-02-27T13:15:57.743Z,1.38
2018-02-27T13:17:04.780Z,1.32
2018-02-27T13:17:57.824Z,1.36
2018-02-27T13:18:57.772Z,1.35
2018-02-27T13:19:57.789Z,1.36
2018-02-27T13:20:57.760Z,1.35
2018-02-27T13:21:57.773Z,1.35
2018-02-27T13:22:57.779Z,1.35
2018-02-27T13:23:57.767Z,1.34
2018-02-27T13:24:57.786Z,1.35
2018-02-27T13:25:57.769Z,1.39
2018-02-27T13:26:57.803Z,1.34
2018-02-27T13:27:57.780Z,1.36
2018-02-27T13:28:57.795Z,1.39
2018-02-27T13:29:57.780Z,1.37
2018-02-27T13:30:57.934Z,1.39
2018-02-27T13:31:57.813Z,1.39
2018-02-27T13:32:57.802Z,1.4